Coroico, Bolivia
Current Conditions -  °F | °C
As of 11:00 AM on Saturday 20 Dec 2014 (Local Time) from SLLP Reporting Station
Broken Clouds Broken Clouds  
Wind Chill: 55°   Ceiling: 20000
Heat Index: 55°   Visibility: 6mi
Dew Point: 37°   Wind: 10mph
Humidity: 51%   Direction: 260°W
Pressure: 30.53"   Gusts: NA
Location:  16.19°S, 67.72°W
Report Text: SLLP 201500Z 26009KT 220V340 9999 SCT017 SCT070 BKN200 13/03 Q1034
Loading
Personal Weather Stations






























Interactive Weather Map New forecast layout! Learn more

10-Day Weather Forecast

Advertisements
Track Severe Weather on mobile